createdAt,value
2023-08-14T00:00:56.574Z,90.81
2023-08-14T00:01:55.411Z,90.92
2023-08-14T00:02:55.446Z,91.22
2023-08-14T00:03:55.446Z,90.61
2023-08-14T00:04:55.412Z,91.42
2023-08-14T00:05:55.415Z,91.42
2023-08-14T00:06:55.415Z,91.32
2023-08-14T00:07:55.435Z,90.92
2023-08-14T00:08:55.432Z,90.92
2023-08-14T00:09:55.434Z,90.81
2023-08-14T00:10:55.449Z,91.12
2023-08-14T00:11:55.433Z,91.02
2023-08-14T00:12:55.432Z,91.32
2023-08-14T00:13:55.457Z,91.36
2023-08-14T00:15:28.680Z,91.42
2023-08-14T00:15:55.487Z,91.73
2023-08-14T00:16:55.439Z,90.81
2023-08-14T00:17:55.474Z,90.96
2023-08-14T00:18:55.553Z,91.06
2023-08-14T00:19:55.444Z,91.06
2023-08-14T00:20:55.457Z,90.96
2023-08-14T00:21:55.455Z,91.36
2023-08-14T00:22:55.449Z,90.90
2023-08-14T00:23:55.447Z,91.61
2023-08-14T00:24:55.453Z,91.41
2023-08-14T00:25:55.454Z,92.22
2023-08-14T00:26:55.452Z,92.22
2023-08-14T00:27:55.454Z,91.41
2023-08-14T00:28:55.468Z,91.82
2023-08-14T00:29:55.460Z,92.42
2023-08-14T00:30:55.508Z,92.22
2023-08-14T00:31:55.461Z,92.52
2023-08-14T00:32:55.491Z,92.72
2023-08-14T00:33:55.467Z,92.72
2023-08-14T00:34:55.475Z,91.82
2023-08-14T00:35:55.466Z,91.71
2023-08-14T00:36:55.472Z,91.71
2023-08-14T00:37:55.469Z,91.41
2023-08-14T00:38:55.474Z,92.22
2023-08-14T00:39:55.474Z,91.51
2023-08-14T00:40:55.478Z,92.32
2023-08-14T00:41:55.477Z,91.82
2023-08-14T00:42:55.502Z,92.02
2023-08-14T00:43:55.491Z,92.32
2023-08-14T00:44:55.496Z,92.12
2023-08-14T00:45:55.478Z,92.32
2023-08-14T00:46:55.475Z,92.02
2023-08-14T00:47:55.645Z,92.32
2023-08-14T00:48:55.496Z,92.26
2023-08-14T00:49:55.486Z,92.26
2023-08-14T00:50:55.576Z,91.75
2023-08-14T00:51:55.516Z,92.16
2023-08-14T00:52:55.489Z,92.36
2023-08-14T00:53:55.497Z,91.86
2023-08-14T00:54:55.503Z,91.35
2023-08-14T00:55:55.530Z,92.06
2023-08-14T00:59:39.162Z,92.77
2023-08-14T01:00:39.186Z,92.36
2023-08-14T01:01:39.224Z,92.91
2023-08-14T01:02:39.162Z,93.02
2023-08-14T01:03:39.168Z,93.43
2023-08-14T01:04:39.166Z,93.12
2023-08-14T01:05:39.160Z,93.63
2023-08-14T01:06:39.163Z,93.52
2023-08-14T01:07:39.176Z,93.12
2023-08-14T01:08:39.166Z,92.91
2023-08-14T01:10:39.173Z,92.91
2023-08-14T01:11:39.176Z,92.61
2023-08-14T01:12:39.223Z,92.71
2023-08-14T01:13:39.185Z,92.41
2023-08-14T01:14:39.174Z,92.71
2023-08-14T01:16:12.429Z,92.82
2023-08-14T01:16:39.257Z,93.12
2023-08-14T01:17:39.199Z,93.12
2023-08-14T01:18:39.177Z,93.32
2023-08-14T01:19:39.180Z,93.22
2023-08-14T01:20:39.178Z,93.12
2023-08-14T01:22:12.415Z,92.91
2023-08-14T01:22:39.212Z,92.91
2023-08-14T01:23:39.187Z,92.82
2023-08-14T01:24:39.189Z,92.82
2023-08-14T01:25:39.192Z,92.91
2023-08-14T01:26:39.188Z,93.12
2023-08-14T01:27:39.190Z,93.12
2023-08-14T01:28:39.190Z,93.06
2023-08-14T01:29:39.188Z,93.16
2023-08-14T01:30:39.226Z,93.37
2023-08-14T01:31:39.186Z,92.55
2023-08-14T01:32:39.222Z,93.06
2023-08-14T01:33:39.198Z,93.06
2023-08-14T01:34:39.191Z,92.71
2023-08-14T01:35:39.197Z,93.06
2023-08-14T01:36:39.197Z,93.12
2023-08-14T01:37:39.196Z,93.37
2023-08-14T01:38:39.200Z,93.16
2023-08-14T01:39:39.198Z,92.76
2023-08-14T01:40:39.216Z,93.06
2023-08-14T01:41:39.204Z,92.82
2023-08-14T01:42:39.203Z,93.16
2023-08-14T01:43:39.204Z,93.16
2023-08-14T01:44:39.207Z,92.82
2023-08-14T01:45:39.219Z,92.86
2023-08-14T01:46:39.216Z,92.96
2023-08-14T01:47:39.226Z,92.91
2023-08-14T01:48:39.216Z,92.91
2023-08-14T01:49:39.212Z,93.12
2023-08-14T01:50:39.211Z,93.06
2023-08-14T01:51:39.208Z,92.96
2023-08-14T01:52:39.215Z,93.06
2023-08-14T01:53:39.217Z,92.86
2023-08-14T01:54:39.220Z,93.26
2023-08-14T01:55:39.215Z,92.76
2023-08-14T01:56:39.217Z,92.55
2023-08-14T01:57:39.234Z,93.02
2023-08-14T01:59:12.424Z,92.76
2023-08-14T01:59:39.216Z,92.96
2023-08-14T02:00:39.217Z,93.06
2023-08-14T02:01:39.241Z,92.76
2023-08-14T02:02:39.345Z,93.16
2023-08-14T02:03:39.347Z,93.06
2023-08-14T02:05:39.233Z,93.16
2023-08-14T02:06:39.224Z,93.47
2023-08-14T02:07:39.222Z,93.67
2023-08-14T02:08:39.228Z,93.98
2023-08-14T02:09:39.236Z,94.08
2023-08-14T02:10:39.229Z,94.18
2023-08-14T02:12:12.440Z,94.23
2023-08-14T02:12:39.228Z,93.82
2023-08-14T02:13:39.233Z,93.92
2023-08-14T02:14:39.228Z,94.32
2023-08-14T02:17:12.442Z,94.12
2023-08-14T02:17:39.246Z,94.84
2023-08-14T02:18:39.234Z,94.12
2023-08-14T02:19:39.233Z,94.32
2023-08-14T02:20:39.236Z,94.32
2023-08-14T02:21:39.254Z,94.23
2023-08-14T02:22:39.252Z,94.32
2023-08-14T02:23:39.245Z,94.18
2023-08-14T02:24:39.248Z,94.43
2023-08-14T02:25:39.612Z,94.63
2023-08-14T02:26:39.241Z,94.12
2023-08-14T02:27:39.244Z,94.32
2023-08-14T02:28:39.241Z,94.32
2023-08-14T02:29:39.249Z,94.32
2023-08-14T02:30:39.246Z,94.23
2023-08-14T02:31:39.275Z,94.53
2023-08-14T02:32:39.275Z,94.32
2023-08-14T02:33:39.261Z,94.57
2023-08-14T02:34:39.248Z,94.68
2023-08-14T02:35:39.250Z,94.32
2023-08-14T02:36:39.244Z,95.49
2023-08-14T02:37:39.264Z,96.00
2023-08-14T02:38:39.261Z,95.59
2023-08-14T02:39:39.253Z,95.90
2023-08-14T02:40:39.262Z,94.88
2023-08-14T02:41:39.261Z,94.37
2023-08-14T02:43:12.474Z,94.78
2023-08-14T02:43:39.289Z,94.57
2023-08-14T02:44:39.268Z,94.73
2023-08-14T02:45:39.293Z,95.54
2023-08-14T02:46:39.253Z,95.75
2023-08-14T02:47:39.284Z,95.24
2023-08-14T02:48:39.256Z,95.24
2023-08-14T02:49:39.263Z,94.43
2023-08-14T02:50:39.267Z,94.53
2023-08-14T02:51:39.255Z,94.43
2023-08-14T02:52:39.255Z,94.07
2023-08-14T02:53:39.252Z,94.43
2023-08-14T02:54:39.268Z,93.82
2023-08-14T02:55:39.254Z,93.86
2023-08-14T02:56:39.258Z,94.12
2023-08-14T02:57:39.265Z,94.27
2023-08-14T02:58:39.257Z,93.76
2023-08-14T02:59:39.254Z,94.27
2023-08-14T03:00:39.256Z,94.17
2023-08-14T03:01:39.257Z,94.23
2023-08-14T03:02:39.333Z,93.82
2023-08-14T03:03:39.304Z,94.12
2023-08-14T03:04:39.262Z,93.62
2023-08-14T03:05:39.252Z,94.07
2023-08-14T03:06:39.258Z,94.12
2023-08-14T03:07:39.258Z,93.86
2023-08-14T03:08:39.256Z,94.12
2023-08-14T03:09:39.259Z,94.12
2023-08-14T03:10:39.261Z,94.07
2023-08-14T03:11:39.253Z,94.17
2023-08-14T03:15:22.868Z,94.17
2023-08-14T03:16:22.941Z,93.76
2023-08-14T03:17:22.862Z,93.55
2023-08-14T03:18:22.868Z,93.96
2023-08-14T03:20:22.871Z,93.76
2023-08-14T03:21:22.871Z,93.90
2023-08-14T03:22:22.872Z,94.01
2023-08-14T03:23:22.879Z,94.01
2023-08-14T03:24:22.871Z,94.11
2023-08-14T03:25:56.081Z,94.62
2023-08-14T03:26:22.874Z,94.31
2023-08-14T03:27:22.878Z,94.78
2023-08-14T03:28:22.876Z,94.27
2023-08-14T03:29:22.883Z,94.27
2023-08-14T03:30:22.872Z,94.47
2023-08-14T03:31:22.901Z,94.07
2023-08-14T03:32:56.136Z,94.17
2023-08-14T03:33:22.869Z,93.96
2023-08-14T03:34:22.884Z,94.07
2023-08-14T03:35:22.878Z,94.07
2023-08-14T03:36:56.082Z,94.17
2023-08-14T03:37:22.879Z,94.17
2023-08-14T03:38:22.877Z,94.11
2023-08-14T03:39:22.899Z,94.11
2023-08-14T03:40:23.055Z,94.11
2023-08-14T03:41:56.088Z,94.11
2023-08-14T03:42:22.880Z,94.31
2023-08-14T03:43:22.891Z,94.21
2023-08-14T03:44:22.881Z,94.21
2023-08-14T03:45:22.881Z,93.90
2023-08-14T03:46:22.895Z,94.11
2023-08-14T03:47:22.880Z,94.31
2023-08-14T03:48:22.882Z,94.01
2023-08-14T03:50:22.879Z,94.21
2023-08-14T03:51:22.879Z,94.62
2023-08-14T03:52:22.884Z,94.52
2023-08-14T03:53:22.890Z,94.11
2023-08-14T03:54:22.884Z,94.21
2023-08-14T03:55:22.893Z,93.90
2023-08-14T03:56:22.882Z,94.52
2023-08-14T03:57:22.886Z,94.62
2023-08-14T03:58:22.887Z,94.31
2023-08-14T03:59:22.887Z,94.11
2023-08-14T04:00:22.880Z,94.11
2023-08-14T04:01:22.945Z,94.01
2023-08-14T04:02:22.896Z,94.21
2023-08-14T04:03:56.131Z,93.90
2023-08-14T04:04:22.884Z,93.90
2023-08-14T04:05:22.885Z,94.21
2023-08-14T04:06:22.939Z,94.42
2023-08-14T04:07:22.887Z,94.42
2023-08-14T04:08:22.891Z,94.21
2023-08-14T04:09:22.890Z,94.11
2023-08-14T04:10:22.960Z,94.42
2023-08-14T04:11:22.889Z,94.42
2023-08-14T04:12:22.895Z,94.11
2023-08-14T04:13:22.901Z,93.90
2023-08-14T04:14:22.889Z,94.42
2023-08-14T04:15:22.894Z,93.90
2023-08-14T04:16:22.933Z,94.11
2023-08-14T04:17:22.891Z,94.21
2023-08-14T04:18:22.891Z,94.21
2023-08-14T04:19:22.889Z,93.90
2023-08-14T04:20:22.888Z,94.01
2023-08-14T04:21:22.896Z,94.35
2023-08-14T04:22:22.891Z,94.26
2023-08-14T04:23:22.892Z,94.21
2023-08-14T04:24:22.892Z,94.26
2023-08-14T04:25:22.886Z,96.04
2023-08-14T04:26:22.891Z,96.15
2023-08-14T04:27:22.891Z,95.23
2023-08-14T04:28:22.904Z,95.23
2023-08-14T04:29:22.896Z,95.13
2023-08-14T04:30:22.887Z,95.53
2023-08-14T04:31:22.925Z,95.89
2023-08-14T04:32:22.898Z,94.62
2023-08-14T04:33:22.893Z,94.21
2023-08-14T04:34:22.905Z,94.42
2023-08-14T04:35:23.677Z,94.42
2023-08-14T04:36:22.894Z,94.11
2023-08-14T04:37:22.895Z,94.66
2023-08-14T04:38:22.905Z,94.56
2023-08-14T04:39:22.900Z,94.42
2023-08-14T04:40:23.022Z,94.42
2023-08-14T04:41:22.897Z,94.66
2023-08-14T04:42:22.902Z,94.62
2023-08-14T04:43:22.896Z,94.62
2023-08-14T04:44:22.914Z,94.66
2023-08-14T04:45:22.896Z,94.52
2023-08-14T04:46:22.929Z,95.48
2023-08-14T04:47:22.892Z,95.33
2023-08-14T04:48:22.960Z,95.33
2023-08-14T04:49:22.898Z,95.33
2023-08-14T04:50:22.892Z,95.23
2023-08-14T04:51:22.905Z,95.13
2023-08-14T04:52:22.915Z,95.43
2023-08-14T04:53:22.904Z,94.68
2023-08-14T04:54:56.106Z,94.82
2023-08-14T04:55:22.899Z,94.42
2023-08-14T04:56:22.900Z,94.57
2023-08-14T04:57:22.898Z,94.47
2023-08-14T04:58:22.910Z,94.62
2023-08-14T04:59:22.916Z,94.42
2023-08-14T05:00:22.942Z,94.47
2023-08-14T05:01:22.935Z,95.49
2023-08-14T05:02:22.988Z,94.78
2023-08-14T05:03:22.897Z,94.47
2023-08-14T05:04:22.942Z,94.68
2023-08-14T05:05:22.909Z,94.88
2023-08-14T05:06:22.915Z,94.27
2023-08-14T05:07:24.812Z,94.37
2023-08-14T05:08:56.128Z,94.93
2023-08-14T05:09:27.341Z,94.43
2023-08-14T05:10:22.898Z,94.47
2023-08-14T05:11:22.910Z,94.57
2023-08-14T05:12:22.901Z,94.57
2023-08-14T05:13:56.108Z,94.43
2023-08-14T05:14:22.903Z,94.43
2023-08-14T05:15:22.906Z,94.63
2023-08-14T05:16:22.953Z,94.23
2023-08-14T05:17:22.950Z,94.73
2023-08-14T05:19:22.908Z,94.53
2023-08-14T05:20:22.899Z,94.84
2023-08-14T05:21:22.903Z,94.84
2023-08-14T05:22:22.908Z,94.48
2023-08-14T05:23:22.915Z,95.09
2023-08-14T05:24:22.913Z,95.40
2023-08-14T05:25:22.930Z,95.61
2023-08-14T05:26:22.909Z,95.40
2023-08-14T05:27:56.120Z,96.17
2023-08-14T05:28:22.924Z,96.47
2023-08-14T05:29:22.916Z,95.56
2023-08-14T05:30:22.904Z,95.66
2023-08-14T05:31:22.971Z,94.50
2023-08-14T05:32:22.915Z,94.40
2023-08-14T05:33:22.936Z,94.40
2023-08-14T05:34:22.912Z,95.01
2023-08-14T05:35:22.921Z,96.02
2023-08-14T05:36:56.121Z,95.87
2023-08-14T05:37:22.921Z,95.87
2023-08-14T05:38:22.918Z,95.17
2023-08-14T05:39:22.927Z,95.32
2023-08-14T05:40:23.168Z,95.22
2023-08-14T05:41:23.040Z,95.94
2023-08-14T05:42:22.924Z,94.98
2023-08-14T05:43:23.118Z,95.48
2023-08-14T05:44:22.923Z,94.17
2023-08-14T05:45:22.975Z,94.26
2023-08-14T05:46:22.927Z,93.96
2023-08-14T05:47:23.009Z,94.46
2023-08-14T05:48:22.944Z,95.58
2023-08-14T05:49:22.933Z,94.26
2023-08-14T05:50:23.128Z,94.68
2023-08-14T05:51:22.930Z,94.27
2023-08-14T05:52:22.929Z,93.87
2023-08-14T05:53:22.962Z,93.67
2023-08-14T05:54:22.933Z,93.87
2023-08-14T05:55:22.955Z,93.67
2023-08-14T05:56:23.024Z,93.52
2023-08-14T05:57:22.945Z,93.73
2023-08-14T05:58:22.934Z,93.73
2023-08-14T05:59:22.933Z,93.68
2023-08-14T06:00:22.933Z,93.18
2023-08-14T06:01:23.027Z,92.77
2023-08-14T06:02:22.961Z,92.72
2023-08-14T06:03:37.601Z,92.52
2023-08-14T06:04:22.959Z,92.48
2023-08-14T06:05:22.941Z,92.63
2023-08-14T06:06:22.948Z,92.48
2023-08-14T06:07:22.951Z,92.28
2023-08-14T06:08:22.962Z,92.38
2023-08-14T06:09:24.614Z,92.24
2023-08-14T06:10:22.947Z,91.83
2023-08-14T06:11:22.956Z,91.73
2023-08-14T06:12:23.425Z,91.18
2023-08-14T06:13:22.959Z,91.89
2023-08-14T06:14:22.965Z,90.83
2023-08-14T06:15:22.966Z,89.92
2023-08-14T06:16:23.020Z,91.64
2023-08-14T06:17:22.977Z,91.14
2023-08-14T06:18:22.968Z,90.59
2023-08-14T06:19:22.997Z,89.68
2023-08-14T06:20:56.196Z,89.58
2023-08-14T06:21:23.532Z,89.78
2023-08-14T06:22:22.978Z,89.58
2023-08-14T06:23:23.007Z,88.43
2023-08-14T06:24:22.981Z,88.26
2023-08-14T06:25:22.997Z,88.93
2023-08-14T06:26:22.994Z,88.12
2023-08-14T06:27:22.994Z,88.08
2023-08-14T06:28:23.004Z,87.78
2023-08-14T06:29:22.998Z,87.38
2023-08-14T06:30:23.008Z,86.93
2023-08-14T06:31:23.083Z,86.83
2023-08-14T06:32:23.011Z,86.07
2023-08-14T06:33:23.012Z,85.92
2023-08-14T06:34:23.011Z,86.02
2023-08-14T06:35:23.072Z,87.23
2023-08-14T06:36:23.347Z,85.68
2023-08-14T06:38:57.316Z,86.69
2023-08-14T06:39:56.418Z,85.54
2023-08-14T06:40:23.107Z,84.33
2023-08-14T06:41:23.189Z,84.13
2023-08-14T06:42:23.170Z,84.94
2023-08-14T06:43:23.213Z,84.83
2023-08-14T06:45:23.486Z,84.49
2023-08-14T06:51:06.966Z,82.07
2023-08-14T06:52:06.985Z,82.58
2023-08-14T06:55:06.968Z,82.64
2023-08-14T06:56:06.979Z,82.44
2023-08-14T06:57:06.992Z,82.30
2023-08-14T06:58:06.990Z,82.20
2023-08-14T06:59:06.995Z,82.20
2023-08-14T07:00:06.994Z,82.30
2023-08-14T07:01:07.266Z,80.99
2023-08-14T07:02:07.013Z,81.19
2023-08-14T07:03:40.334Z,80.79
2023-08-14T07:04:06.997Z,79.79
2023-08-14T07:05:09.167Z,80.69
2023-08-14T07:06:07.036Z,80.65
2023-08-14T07:07:07.020Z,80.08
2023-08-14T07:08:07.030Z,79.94
2023-08-14T07:09:07.037Z,79.74
2023-08-14T07:10:07.052Z,79.94
2023-08-14T07:12:07.050Z,79.74
2023-08-14T07:13:07.816Z,80.25
2023-08-14T07:14:07.070Z,79.68
2023-08-14T07:15:07.078Z,80.22
2023-08-14T07:16:07.156Z,81.59
2023-08-14T07:17:07.074Z,81.53
2023-08-14T07:18:07.161Z,81.49
2023-08-14T07:23:50.826Z,81.49
2023-08-14T07:26:24.098Z,80.89
2023-08-14T07:26:50.827Z,81.59
2023-08-14T07:28:50.860Z,80.58
2023-08-14T07:29:50.837Z,80.95
2023-08-14T07:30:50.881Z,81.26
2023-08-14T07:31:50.829Z,81.05
2023-08-14T07:33:51.013Z,80.25
2023-08-14T07:34:50.834Z,80.45
2023-08-14T07:36:50.880Z,80.75
2023-08-14T07:37:50.885Z,79.85
2023-08-14T07:38:50.898Z,80.05
2023-08-14T07:39:51.092Z,79.94
2023-08-14T07:40:50.924Z,79.54
2023-08-14T07:42:50.906Z,80.15
2023-08-14T07:43:50.931Z,79.85
2023-08-14T07:44:50.902Z,80.65
2023-08-14T07:45:50.974Z,80.49
2023-08-14T07:49:34.668Z,80.85
2023-08-14T07:50:34.704Z,80.75
2023-08-14T07:51:34.698Z,81.15
2023-08-14T07:52:34.668Z,81.15
2023-08-14T07:54:34.722Z,80.45
2023-08-14T07:55:34.708Z,80.65
2023-08-14T07:57:34.677Z,81.05
2023-08-14T07:58:34.689Z,80.55
2023-08-14T07:59:34.703Z,80.51
2023-08-14T08:01:34.735Z,78.90
2023-08-14T08:02:34.908Z,78.66
2023-08-14T08:03:34.781Z,77.22
2023-08-14T08:04:39.643Z,76.72
2023-08-14T08:07:18.717Z,76.42
2023-08-14T08:09:51.760Z,76.78
2023-08-14T08:10:18.436Z,75.84
2023-08-14T08:11:18.445Z,74.51
2023-08-14T08:12:18.627Z,74.27
2023-08-14T08:14:18.476Z,72.83
2023-08-14T08:15:18.519Z,71.23
2023-08-14T08:16:18.553Z,71.66
2023-08-14T08:18:18.528Z,72.80
2023-08-14T08:19:18.510Z,73.10
2023-08-14T08:20:18.524Z,73.70
2023-08-14T08:21:18.514Z,73.84
2023-08-14T08:25:35.545Z,73.70
2023-08-14T08:26:02.303Z,75.34
2023-08-14T08:27:02.293Z,75.04
2023-08-14T08:28:02.312Z,74.34
2023-08-14T08:29:44.737Z,75.60
2023-08-14T08:30:44.738Z,72.77
2023-08-14T08:31:44.831Z,73.30
2023-08-14T08:32:44.814Z,71.26
2023-08-14T08:33:44.769Z,71.39
2023-08-14T08:35:44.800Z,68.43
2023-08-14T08:36:44.727Z,65.50
2023-08-14T08:37:44.817Z,62.18
2023-08-14T08:38:44.817Z,61.29
2023-08-14T08:39:44.833Z,61.76
2023-08-14T08:41:18.118Z,61.72
2023-08-14T08:41:44.854Z,61.69
2023-08-14T08:43:18.106Z,59.81
2023-08-14T08:43:44.916Z,59.31
2023-08-14T08:44:44.868Z,57.99
2023-08-14T08:45:44.931Z,60.05
2023-08-14T08:46:44.882Z,59.03
2023-08-14T08:47:44.910Z,56.59
2023-08-14T08:49:44.937Z,55.83
2023-08-14T08:50:45.676Z,53.70
2023-08-14T08:51:48.742Z,53.67
2023-08-14T08:52:44.957Z,53.80
2023-08-14T08:53:44.989Z,54.85
2023-08-14T08:54:45.008Z,56.73
2023-08-14T08:58:11.542Z,51.65
2023-08-14T08:59:11.610Z,53.68
2023-08-14T09:00:11.595Z,54.77
2023-08-14T09:01:11.551Z,53.33
2023-08-14T09:02:11.637Z,54.55
2023-08-14T09:03:11.749Z,54.55
2023-08-14T09:04:11.749Z,55.79
2023-08-14T09:21:35.377Z,48.16
2023-08-14T09:22:32.731Z,48.26
2023-08-14T09:23:32.804Z,46.80
2023-08-14T09:24:32.824Z,46.82
2023-08-14T09:25:32.853Z,47.24
2023-08-14T09:26:32.860Z,47.37
2023-08-14T09:27:32.802Z,46.04
2023-08-14T09:28:32.906Z,44.16
2023-08-14T09:30:06.120Z,46.55
2023-08-14T09:30:32.923Z,46.63
2023-08-14T09:31:35.247Z,45.68
2023-08-14T09:32:33.039Z,47.52
2023-08-14T09:33:32.938Z,48.77
2023-08-14T09:34:32.898Z,47.47
2023-08-14T09:35:33.019Z,46.53
2023-08-14T09:36:33.043Z,46.14
2023-08-14T09:37:33.074Z,46.69
2023-08-14T09:38:33.096Z,43.59
2023-08-14T09:41:15.564Z,43.59
2023-08-14T09:42:15.860Z,43.96
2023-08-14T09:45:21.139Z,44.42
2023-08-14T09:55:58.888Z,46.26
2023-08-14T09:57:01.888Z,45.67
2023-08-14T09:59:14.459Z,42.90
2023-08-14T10:00:12.467Z,44.56
2023-08-14T10:01:11.520Z,43.77
2023-08-14T10:02:11.529Z,43.66
2023-08-14T10:03:58.956Z,42.96
2023-08-14T10:04:58.983Z,43.69
2023-08-14T10:05:59.000Z,46.08
2023-08-14T10:06:59.015Z,45.31
2023-08-14T10:07:59.026Z,45.61
2023-08-14T10:09:01.552Z,43.91
2023-08-14T10:09:59.069Z,42.40
2023-08-14T10:11:17.338Z,45.49
2023-08-14T10:11:59.095Z,43.87
2023-08-14T10:13:59.129Z,45.61
2023-08-14T10:15:01.787Z,46.82
2023-08-14T10:15:59.256Z,46.60
2023-08-14T10:16:59.190Z,46.80
2023-08-14T10:17:59.238Z,46.78
2023-08-14T10:18:59.231Z,45.79
2023-08-14T10:19:59.245Z,45.47
2023-08-14T10:20:59.256Z,45.54
2023-08-14T10:21:59.274Z,46.26
2023-08-14T10:22:59.290Z,45.98
2023-08-14T10:23:59.308Z,46.38
2023-08-14T10:24:59.327Z,47.13
2023-08-14T10:25:59.365Z,44.59
2023-08-14T10:26:59.477Z,43.96
2023-08-14T10:27:59.378Z,42.58
2023-08-14T10:29:32.615Z,43.68
2023-08-14T10:29:59.421Z,42.00
2023-08-14T10:30:59.513Z,42.14
2023-08-14T10:32:59.670Z,43.73
2023-08-14T10:33:59.666Z,43.82
2023-08-14T10:34:59.602Z,43.70
2023-08-14T10:35:59.607Z,44.12
2023-08-14T10:36:59.641Z,43.94
2023-08-14T10:38:08.869Z,43.07
2023-08-14T10:39:03.277Z,44.95
2023-08-14T10:39:59.696Z,43.87
2023-08-14T10:41:00.115Z,46.50
2023-08-14T10:41:59.732Z,46.64
2023-08-14T10:42:59.769Z,47.83
2023-08-14T10:43:59.753Z,46.80
2023-08-14T10:44:59.777Z,44.40
2023-08-14T10:45:59.836Z,44.58
2023-08-14T10:46:59.811Z,45.79
2023-08-14T10:50:32.144Z,42.52
2023-08-14T10:51:32.179Z,42.54
2023-08-14T10:52:33.600Z,42.57
2023-08-14T10:53:32.198Z,46.33
2023-08-14T10:54:32.157Z,45.93
2023-08-14T10:55:32.176Z,46.37
2023-08-14T10:56:32.190Z,45.62
2023-08-14T10:57:32.212Z,46.61
2023-08-14T10:58:32.250Z,46.49
2023-08-14T10:59:32.235Z,47.06
2023-08-14T11:00:32.254Z,46.64
2023-08-14T11:01:32.294Z,46.64
2023-08-14T11:02:32.320Z,46.42
2023-08-14T11:03:32.313Z,46.40
2023-08-14T11:04:32.306Z,46.20
2023-08-14T11:05:32.341Z,46.23
2023-08-14T11:06:32.346Z,45.85
2023-08-14T11:07:32.372Z,45.87
2023-08-14T11:08:32.380Z,46.77
2023-08-14T11:09:32.392Z,46.81
2023-08-14T11:10:32.405Z,48.72
2023-08-14T11:11:32.415Z,48.92
2023-08-14T11:12:35.463Z,47.83
2023-08-14T11:13:33.026Z,49.02
2023-08-14T11:14:32.462Z,50.83
2023-08-14T11:15:32.512Z,50.75
2023-08-14T11:16:32.569Z,51.65
2023-08-14T11:17:32.522Z,50.75
2023-08-14T11:18:32.552Z,51.05
2023-08-14T11:19:32.522Z,51.87
2023-08-14T11:20:32.536Z,51.77
2023-08-14T11:21:32.843Z,51.65
2023-08-14T11:22:32.563Z,50.31
2023-08-14T11:24:05.780Z,50.80
2023-08-14T11:24:32.583Z,51.07
2023-08-14T11:25:32.597Z,51.57
2023-08-14T11:26:32.614Z,50.56
2023-08-14T11:27:32.614Z,50.16
2023-08-14T11:28:32.634Z,51.05
2023-08-14T11:29:33.297Z,49.96
2023-08-14T11:30:32.652Z,49.26
2023-08-14T11:32:32.738Z,50.03
2023-08-14T11:33:32.689Z,49.14
2023-08-14T11:34:32.698Z,51.07
2023-08-14T11:35:32.714Z,50.85
2023-08-14T11:36:35.448Z,50.56
2023-08-14T11:37:32.738Z,50.05
2023-08-14T11:38:32.740Z,50.75
2023-08-14T11:39:32.754Z,50.65
2023-08-14T11:40:32.766Z,50.56
2023-08-14T11:41:32.769Z,50.45
2023-08-14T11:42:32.785Z,50.65
2023-08-14T11:43:32.790Z,50.65
2023-08-14T11:46:16.416Z,49.26
2023-08-14T11:47:16.486Z,48.86
2023-08-14T11:48:16.461Z,48.96
2023-08-14T11:49:16.444Z,50.65
2023-08-14T11:50:16.453Z,50.93
2023-08-14T11:51:16.464Z,50.43
2023-08-14T11:52:16.805Z,50.53
2023-08-14T11:53:16.492Z,50.60
2023-08-14T11:54:16.503Z,49.81
2023-08-14T11:55:16.605Z,50.40
2023-08-14T11:56:16.530Z,49.21
2023-08-14T11:57:16.527Z,48.92
2023-08-14T11:58:16.544Z,49.74
2023-08-14T11:59:16.543Z,50.21
2023-08-14T12:00:21.067Z,49.61
2023-08-14T12:01:16.620Z,51.03
2023-08-14T12:02:16.936Z,50.53
2023-08-14T12:03:16.702Z,50.43
2023-08-14T12:04:16.591Z,50.43
2023-08-14T12:05:16.713Z,50.93
2023-08-14T12:06:16.613Z,50.73
2023-08-14T12:07:16.621Z,52.12
2023-08-14T12:08:16.637Z,50.73
2023-08-14T12:09:16.689Z,52.02
2023-08-14T12:10:16.678Z,51.12
2023-08-14T12:11:16.656Z,51.12
2023-08-14T12:12:17.062Z,50.83
2023-08-14T12:13:16.676Z,51.42
2023-08-14T12:14:17.414Z,51.10
2023-08-14T12:15:16.700Z,49.81
2023-08-14T12:16:19.269Z,50.38
2023-08-14T12:17:20.247Z,50.36
2023-08-14T12:18:17.362Z,50.09
2023-08-14T12:19:16.746Z,50.98
2023-08-14T12:20:16.736Z,50.98
2023-08-14T12:21:16.784Z,48.69
2023-08-14T12:22:16.759Z,48.90
2023-08-14T12:23:16.767Z,50.09
2023-08-14T12:24:16.782Z,48.99
2023-08-14T12:26:50.015Z,48.00
2023-08-14T12:27:17.250Z,50.70
2023-08-14T12:28:16.819Z,50.98
2023-08-14T12:30:16.829Z,47.92
2023-08-14T12:31:16.872Z,48.72
2023-08-14T12:32:16.851Z,48.62
2023-08-14T12:33:16.960Z,49.11
2023-08-14T12:34:16.871Z,48.82
2023-08-14T12:35:50.088Z,50.21
2023-08-14T12:38:00.572Z,49.39
2023-08-14T12:39:00.667Z,50.78
2023-08-14T12:40:33.858Z,50.38
2023-08-14T12:41:00.674Z,48.90
2023-08-14T12:42:00.684Z,49.19
2023-08-14T12:44:00.828Z,48.42
2023-08-14T12:45:00.669Z,49.91
2023-08-14T12:46:00.723Z,48.99
2023-08-14T12:47:01.000Z,48.10
2023-08-14T12:48:00.777Z,48.69
2023-08-14T12:49:00.754Z,48.00
2023-08-14T12:50:00.774Z,50.88
2023-08-14T12:51:03.304Z,48.99
2023-08-14T12:52:00.722Z,47.78
2023-08-14T12:53:00.770Z,48.87
2023-08-14T12:54:00.798Z,47.88
2023-08-14T12:56:03.820Z,47.58
2023-08-14T12:57:01.858Z,48.99
2023-08-14T12:58:06.272Z,49.09
2023-08-14T12:59:00.769Z,48.99
2023-08-14T13:00:00.834Z,47.68
2023-08-14T13:02:00.837Z,48.97
2023-08-14T13:03:02.179Z,47.78
2023-08-14T13:04:00.862Z,48.10
2023-08-14T13:05:00.810Z,49.09
2023-08-14T13:06:00.883Z,49.09
2023-08-14T13:07:00.920Z,47.90
2023-08-14T13:08:00.838Z,48.30
2023-08-14T13:09:00.851Z,49.29
2023-08-14T13:10:00.933Z,48.69
2023-08-14T13:11:00.880Z,48.97
2023-08-14T13:12:01.675Z,47.98
2023-08-14T13:13:00.887Z,47.88
2023-08-14T13:14:00.957Z,47.78
2023-08-14T13:15:00.987Z,48.47
2023-08-14T13:16:00.958Z,46.81
2023-08-14T13:19:44.624Z,47.61
2023-08-14T13:20:44.686Z,48.80
2023-08-14T13:21:44.686Z,47.50
2023-08-14T13:24:17.823Z,49.17
2023-08-14T13:24:44.652Z,49.94
2023-08-14T13:25:44.720Z,48.85
2023-08-14T13:26:44.720Z,48.03
2023-08-14T13:28:44.704Z,48.94
2023-08-14T13:29:44.766Z,47.36
2023-08-14T13:30:45.031Z,47.86
2023-08-14T13:31:44.747Z,49.17
2023-08-14T13:33:17.957Z,47.68
2023-08-14T13:33:44.701Z,49.07
2023-08-14T13:34:44.840Z,46.39
2023-08-14T13:35:44.714Z,47.88
2023-08-14T13:36:44.730Z,46.79
2023-08-14T13:37:44.836Z,47.26
2023-08-14T13:38:44.794Z,48.23
2023-08-14T13:39:44.807Z,47.63
2023-08-14T13:40:44.762Z,46.35
2023-08-14T13:42:18.150Z,44.74
2023-08-14T13:42:44.780Z,45.43
2023-08-14T13:43:44.788Z,47.02
2023-08-14T13:44:44.797Z,47.81
2023-08-14T13:45:44.810Z,48.50
2023-08-14T13:46:44.864Z,45.73
2023-08-14T13:47:53.843Z,47.41
2023-08-14T13:48:45.739Z,47.31
2023-08-14T13:49:44.840Z,47.19
2023-08-14T13:50:44.869Z,48.58
2023-08-14T13:51:45.760Z,46.11
2023-08-14T13:52:46.883Z,46.30
2023-08-14T13:53:44.876Z,46.11
2023-08-14T13:54:44.885Z,46.20
2023-08-14T13:55:44.908Z,46.11
2023-08-14T13:56:44.905Z,47.02
2023-08-14T13:57:44.915Z,45.56
2023-08-14T13:58:44.927Z,45.56
2023-08-14T13:59:44.933Z,46.35
2023-08-14T14:00:44.936Z,46.94
2023-08-14T14:01:45.120Z,45.93
2023-08-14T14:02:44.966Z,45.93
2023-08-14T14:03:44.967Z,45.53
2023-08-14T14:04:44.970Z,44.94
2023-08-14T14:05:45.037Z,44.45
2023-08-14T14:06:44.990Z,45.56
2023-08-14T14:07:51.008Z,46.35
2023-08-14T14:08:45.014Z,45.85
2023-08-14T14:09:45.017Z,46.77
2023-08-14T14:10:45.031Z,46.47
2023-08-14T14:11:45.040Z,48.35
2023-08-14T14:12:59.608Z,47.74
2023-08-14T14:14:45.070Z,47.02
2023-08-14T14:15:45.096Z,45.81
2023-08-14T14:16:45.084Z,45.71
2023-08-14T14:17:45.111Z,45.68
2023-08-14T14:19:45.113Z,45.86
2023-08-14T14:20:45.123Z,45.37
2023-08-14T14:21:45.127Z,46.45
2023-08-14T14:22:45.139Z,46.04
2023-08-14T14:23:45.148Z,43.47
2023-08-14T14:24:45.161Z,43.87
2023-08-14T14:25:45.168Z,44.97
2023-08-14T14:26:45.175Z,44.38
2023-08-14T14:27:45.188Z,44.50
2023-08-14T14:28:45.204Z,44.20
2023-08-14T14:29:45.208Z,44.50
2023-08-14T14:30:45.218Z,45.00
2023-08-14T14:31:45.299Z,45.19
2023-08-14T14:32:45.256Z,45.19
2023-08-14T14:33:45.239Z,46.36
2023-08-14T14:34:45.268Z,44.58